createdAt,value
2022-08-18T00:06:53.097Z,31.8
2022-08-18T00:17:44.667Z,31.8
2022-08-18T00:23:43.744Z,31.7
2022-08-18T00:29:23.775Z,31.7
2022-08-18T00:35:06.527Z,31.7
2022-08-18T00:40:57.349Z,31.6
2022-08-18T00:46:42.792Z,31.6
2022-08-18T00:52:50.624Z,31.6
2022-08-18T00:58:39.341Z,31.6
2022-08-18T01:04:17.188Z,31.6
2022-08-18T01:09:57.297Z,31.6
2022-08-18T01:16:19.073Z,31.6
2022-08-18T01:21:59.356Z,31.6
2022-08-18T01:33:18.165Z,31.5
2022-08-18T01:39:04.083Z,31.5
2022-08-18T01:46:50.044Z,31.5
2022-08-18T01:52:46.423Z,31.4
2022-08-18T01:58:08.505Z,31.4
2022-08-18T02:04:49.835Z,31.4
2022-08-18T02:10:51.767Z,31.4
2022-08-18T02:16:32.283Z,31.4
2022-08-18T02:27:52.077Z,31.4
2022-08-18T02:33:35.082Z,31.4
2022-08-18T02:39:16.256Z,31.3
2022-08-18T02:50:18.755Z,31.3
2022-08-18T02:55:55.539Z,31.3
2022-08-18T03:01:45.543Z,31.3
2022-08-18T03:07:26.434Z,31.3
2022-08-18T03:13:34.215Z,31.3
2022-08-18T03:19:22.859Z,31.3
2022-08-18T03:26:01.184Z,31.2
2022-08-18T03:37:13.657Z,31.2
2022-08-18T03:43:23.887Z,31.1
2022-08-18T03:49:32.307Z,31.1
2022-08-18T03:55:09.800Z,31.1
2022-08-18T04:00:47.229Z,31.1
2022-08-18T04:06:46.259Z,31.1
2022-08-18T04:12:33.520Z,31.1
2022-08-18T04:18:36.987Z,31.1
2022-08-18T04:24:33.589Z,31.1
2022-08-18T04:30:15.843Z,31.1
2022-08-18T04:35:47.164Z,31
2022-08-18T04:41:30.338Z,31
2022-08-18T04:47:13.378Z,31
2022-08-18T04:54:15.174Z,31
2022-08-18T04:59:50.357Z,31
2022-08-18T05:05:28.685Z,31
2022-08-18T05:11:06.643Z,31
2022-08-18T05:17:21.877Z,31
2022-08-18T05:23:19.704Z,31
2022-08-18T05:29:20.468Z,31
2022-08-18T05:35:33.659Z,31
2022-08-18T05:41:17.440Z,31
2022-08-18T05:46:55.132Z,31
2022-08-18T05:52:37.469Z,31
2022-08-18T05:58:22.941Z,31
2022-08-18T06:04:03.190Z,31
2022-08-18T06:09:45.707Z,31
2022-08-18T06:15:24.733Z,31
2022-08-18T06:21:07.590Z,31.1
2022-08-18T06:26:52.781Z,34.3
2022-08-18T06:32:34.953Z,34.4
2022-08-18T06:38:24.797Z,33.6
2022-08-18T06:44:38.511Z,33.1
2022-08-18T06:50:27.517Z,40.1
2022-08-18T06:56:42.943Z,39.7
2022-08-18T07:02:23.459Z,40.3
2022-08-18T07:08:12.615Z,40.8
2022-08-18T07:13:39.436Z,41.4
2022-08-18T07:20:19.754Z,41.9
2022-08-18T07:26:17.966Z,42.4
2022-08-18T07:32:06.246Z,42.8
2022-08-18T07:37:45.460Z,43.2
2022-08-18T07:44:16.309Z,43.5
2022-08-18T07:51:17.416Z,44
2022-08-18T07:58:15.755Z,44.7
2022-08-18T08:04:42.255Z,45.3
2022-08-18T08:10:57.599Z,45.9
2022-08-18T08:17:22.342Z,46.4
2022-08-18T08:23:48.149Z,46.8
2022-08-18T08:29:44.961Z,47.3
2022-08-18T08:36:22.383Z,47.8
2022-08-18T08:42:48.324Z,48.1
2022-08-18T08:54:35.396Z,48.8
2022-08-18T09:00:14.684Z,49.1
2022-08-18T09:06:34.167Z,49.4
2022-08-18T09:12:10.347Z,49.6
2022-08-18T09:17:53.730Z,49.7
2022-08-18T09:23:34.601Z,50
2022-08-18T09:29:33.084Z,50.1
2022-08-18T13:10:10.473Z,54.4
2022-08-18T13:17:14.883Z,54.3
2022-08-18T13:23:42.535Z,54
2022-08-18T13:30:47.321Z,53.9
2022-08-18T13:44:18.507Z,52
2022-08-18T13:50:16.125Z,52.5
2022-08-18T13:56:56.170Z,52.5
2022-08-18T14:10:30.028Z,52.1
2022-08-18T14:16:35.616Z,51.8
2022-08-18T14:22:31.280Z,51.5
2022-08-18T14:28:45.860Z,50.9
2022-08-18T14:36:30.261Z,50.7
2022-08-18T14:42:33.205Z,50.4
2022-08-18T14:50:04.566Z,50
2022-08-18T14:56:15.709Z,49.6
2022-08-18T15:02:20.429Z,49.3
2022-08-18T15:09:05.377Z,48.8
2022-08-18T15:15:42.189Z,48.4
2022-08-18T15:23:05.472Z,47.9
2022-08-18T15:29:27.905Z,47.6
2022-08-18T15:36:40.463Z,47.2
2022-08-18T15:43:15.414Z,46.7
2022-08-18T15:49:32.046Z,46.2
2022-08-18T15:56:09.050Z,45.8
2022-08-18T16:03:25.472Z,45.3
2022-08-18T16:09:36.801Z,44.9
2022-08-18T16:15:36.899Z,44.6
2022-08-18T16:21:40.405Z,44.2
2022-08-18T16:27:24.265Z,43.9
2022-08-18T16:33:06.028Z,43.6
2022-08-18T16:38:47.598Z,43.2
2022-08-18T16:44:32.623Z,42.9
2022-08-18T16:50:15.211Z,42.6
2022-08-18T16:56:08.178Z,42.2
2022-08-18T17:02:39.017Z,41.4
2022-08-18T17:08:26.369Z,39.7
2022-08-18T17:14:19.879Z,38.8
2022-08-18T17:19:59.739Z,38.1
2022-08-18T17:26:06.702Z,37.6
2022-08-18T17:32:14.612Z,37.1
2022-08-18T17:37:59.006Z,36.8
2022-08-18T17:55:39.850Z,36.2
2022-08-18T18:02:03.498Z,36
2022-08-18T18:07:55.213Z,35.9
2022-08-18T18:14:04.974Z,35.9
2022-08-18T18:19:49.244Z,35.8
2022-08-18T18:26:07.321Z,35.6
2022-08-18T18:31:50.703Z,35.6
2022-08-18T18:37:17.247Z,35.6
2022-08-18T18:43:02.292Z,35.5
2022-08-18T18:49:24.815Z,35.4
2022-08-18T18:55:13.835Z,35.3
2022-08-18T19:00:58.262Z,35.3
2022-08-18T19:07:04.957Z,35.3
2022-08-18T19:12:52.386Z,35.3
2022-08-18T19:19:52.360Z,35.3
2022-08-18T19:27:14.366Z,35.2
2022-08-18T19:33:43.538Z,35.2
2022-08-18T19:40:17.057Z,35.1
2022-08-18T19:46:26.857Z,35.1
2022-08-18T19:51:48.768Z,35.1
2022-08-18T19:57:52.404Z,35.1
2022-08-18T20:10:05.695Z,35
2022-08-18T20:15:57.485Z,35
2022-08-18T20:21:46.231Z,34.9
2022-08-18T20:27:27.829Z,34.9
2022-08-18T20:33:11.994Z,34.9
2022-08-18T20:38:49.327Z,34.9
2022-08-18T20:44:46.407Z,34.8
2022-08-18T20:50:34.799Z,34.8
2022-08-18T21:02:55.532Z,34.7
2022-08-18T21:08:58.744Z,34.7
2022-08-18T21:14:54.899Z,34.6
2022-08-18T21:20:26.991Z,34.6
2022-08-18T21:26:13.323Z,34.6
2022-08-18T21:32:32.361Z,34.5
2022-08-18T21:37:57.470Z,34.5
2022-08-18T21:43:37.564Z,34.4
2022-08-18T21:49:05.566Z,34.4
2022-08-18T21:54:44.727Z,34.4
2022-08-18T22:00:29.295Z,34.4
2022-08-18T22:12:50.531Z,34.4
2022-08-18T22:18:37.750Z,34.3
2022-08-18T22:24:00.605Z,34.3
2022-08-18T22:29:41.473Z,34.3
2022-08-18T22:35:22.718Z,34.3
2022-08-18T22:41:03.668Z,34.2
2022-08-18T22:46:26.445Z,34.3
2022-08-18T22:52:12.518Z,34.2
2022-08-18T22:58:17.608Z,34.2
2022-08-18T23:09:46.273Z,34.1
2022-08-18T23:15:16.981Z,34.1
2022-08-18T23:20:53.851Z,34.1
2022-08-18T23:26:59.687Z,34.1
2022-08-18T23:32:48.542Z,34.1
2022-08-18T23:38:31.580Z,34
2022-08-18T23:44:12.891Z,34
2022-08-18T23:49:53.335Z,33.9
2022-08-18T23:55:34.570Z,33.9
